Endicott, WA (99125)

5:13 AM PST on December 28, 2014 (GMT -0800)
RAWS ESCURE WA US | Change Station
CLOSE
Current Station
Personal Weather Station
Location: Benge, WA
Elevation: 1740 ft
Nearby Weather Stations

Elev 1740 ft 47.04 °N, 117.95 °W | Updated 32 minutes ago

Overcast
Overcast
32 °F
Feels Like 27 °F
N
5
Wind Variable Wind from South
Gusts 9.0 mph

Today
High -- | Low -- °F
--% Chance of Precip.
Yesterday
High -- | Low -- °F
Precip. -- in
7:35 AM 4:09 PM
Waxing Crescent, 47% visible
Pressure 30.03 in
Visibility 10.0 miles
Clouds Mostly Cloudy 3400 ft
Overcast 7000 ft
Windchill 27 °F
Dew Point 32 °F
Humidity 100%
Rainfall 0.09 in
Snow Depth Not available.
UV 0 out of 12
Pollen .10 out of 12
Air Quality Not available.
Flu Activity Not available.
METAR KPUW 281253Z AUTO 25011KT 10SM BKN034 OVC070 00/M01 A2997 RMK AO2 SNE09 SLP169 P0000 T00001011

More Conditions Fewer Conditions

Pressure 30.03 in
Visibility 10.0 miles
Clouds Mostly Cloudy 3400 ft
Overcast 7000 ft
Windchill 27 °F
Dew Point 32 °F
Humidity 100%
Rainfall 0.09 in
Snow Depth Not available.
UV 0 out of 12
Pollen .10 out of 12
Air Quality Not available.
Flu Activity Not available.
METAR KPUW 281253Z AUTO 25011KT 10SM BKN034 OVC070 00/M01 A2997 RMK AO2 SNE09 SLP169 P0000 T00001011

More Conditions Fewer Conditions

10-Day Weather Forecast

Almanac

Astronomy

Dec. 28, 2014 Rise Set
Actual Time
Civil Twilight
Nautical Twilight
Astronomical Twilight
Moon
Length of Visible Light
Length of Day
Tomorrow will be .
, % of the Moon is Illuminated

Today's Extremes

State Highs State Lows

Community

WunderPhotos

Upload Photos

1,781,256 photos uploaded!

WunderBlogs® & News

Nearby

Air Quality

  Air Quality AQ Index Pollutant
Not available.

Snow Depth

Station Depth Elevation

Earthquake Activity

City Distance Mag. Time & Date
Minimum magnitude displayed is 2.5.

Coastal Water Temperatures

Place Temperature

Nearby Weather Stations